Time;durP1;ratioP1;P1;durP2;ratioP2;P2;SDS_P1;SDS_P2;PMS_P1;PMS_P2;Temp;Humidity;BMP_temperature;BMP_pressure;BME280_temperature;BME280_humidity;BME280_pressure;Samples;Min_cycle;Max_cycle;Signal;HPM_P1;HPM_P2
2021/03/31 00:00:44;;;;;;;18.02;11.38;;;8.30;67.50;;;;;;5016180;28;20327;-80
2021/03/31 00:03:15;;;;;;;18.50;10.98;;;8.20;67.50;;;;;;5036244;28;20049;-81
2021/03/31 00:05:42;;;;;;;18.65;11.90;;;8.20;67.70;;;;;;5024055;28;20402;-79
2021/03/31 00:08:08;;;;;;;17.58;11.05;;;8.20;67.80;;;;;;5035514;28;20029;-79
2021/03/31 00:10:42;;;;;;;19.63;11.90;;;8.10;67.90;;;;;;5039154;28;20442;-80
2021/03/31 00:13:08;;;;;;;22.85;12.60;;;8.10;68.20;;;;;;5039237;28;20029;-79
2021/03/31 00:15:34;;;;;;;17.00;11.27;;;8.00;68.30;;;;;;5024012;28;20091;-79
2021/03/31 00:18:00;;;;;;;16.30;11.95;;;8.00;68.50;;;;;;5034803;28;20040;-80
2021/03/31 00:20:26;;;;;;;18.85;11.70;;;7.90;68.60;;;;;;5038970;28;20480;-80
2021/03/31 00:22:52;;;;;;;17.90;11.15;;;7.90;68.80;;;;;;5038624;28;20082;-80
2021/03/31 00:25:18;;;;;;;16.67;11.88;;;7.90;68.80;;;;;;5035681;28;20035;-80
2021/03/31 00:27:44;;;;;;;18.10;12.27;;;7.80;69.20;;;;;;5023783;28;20116;-81
2021/03/31 00:30:13;;;;;;;22.95;12.73;;;7.80;69.30;;;;;;5026561;28;21525;-80
2021/03/31 00:32:39;;;;;;;22.77;12.75;;;7.90;69.70;;;;;;5040226;28;20041;-82
2021/03/31 00:35:06;;;;;;;21.40;12.63;;;7.90;69.70;;;;;;5018444;28;20060;-80
2021/03/31 00:37:34;;;;;;;18.75;12.10;;;7.90;69.60;;;;;;5038444;28;20075;-80
2021/03/31 00:40:00;;;;;;;19.88;12.95;;;7.90;69.70;;;;;;5039433;28;20029;-80
2021/03/31 00:42:26;;;;;;;20.58;13.68;;;7.90;69.40;;;;;;5037556;28;20037;-80
2021/03/31 00:44:51;;;;;;;25.13;13.60;;;7.90;69.30;;;;;;5040816;28;20044;-80
2021/03/31 00:47:17;;;;;;;19.85;13.68;;;7.90;69.20;;;;;;5036949;28;20540;-81
2021/03/31 00:49:43;;;;;;;23.52;14.60;;;7.80;69.20;;;;;;5040539;28;20029;-81
2021/03/31 00:52:09;;;;;;;22.17;14.15;;;7.80;69.60;;;;;;5039305;28;20086;-80
2021/03/31 00:54:35;;;;;;;23.77;14.35;;;7.70;69.90;;;;;;5038360;28;20121;-80
2021/03/31 00:57:01;;;;;;;19.85;13.85;;;7.70;70.00;;;;;;5040145;28;20033;-80
2021/03/31 00:59:29;;;;;;;24.02;15.20;;;7.50;70.30;;;;;;5036253;28;20033;-82
2021/03/31 01:01:55;;;;;;;21.40;14.50;;;7.50;70.70;;;;;;5031173;28;20123;-79
2021/03/31 01:04:21;;;;;;;20.88;13.55;;;7.40;70.90;;;;;;5037460;28;20128;-80
2021/03/31 01:06:47;;;;;;;19.77;13.88;;;7.40;71.10;;;;;;5039181;28;20331;-80
2021/03/31 01:09:13;;;;;;;22.55;14.32;;;7.30;71.50;;;;;;5038654;28;20039;-80
2021/03/31 01:12:00;;;;;;;23.35;14.30;;;7.30;71.60;;;;;;5036597;28;20041;-80
2021/03/31 01:14:44;;;;;;;22.13;14.38;;;7.30;72.00;;;;;;5030816;28;20075;-79
2021/03/31 01:17:19;;;;;;;19.88;13.52;;;7.40;71.50;;;;;;5042987;28;20025;-80
2021/03/31 01:20:14;;;;;;;19.70;13.35;;;7.40;71.20;;;;;;5035158;28;20037;-80
2021/03/31 01:22:40;;;;;;;26.15;14.45;;;7.40;72.10;;;;;;5022980;28;20107;-80
2021/03/31 01:25:39;;;;;;;21.52;14.02;;;7.30;71.60;;;;;;5038179;28;20037;-81
2021/03/31 01:28:42;;;;;;;23.63;14.73;;;7.30;72.10;;;;;;5037669;28;20029;-80
2021/03/31 01:31:27;;;;;;;;;;;7.20;72.40;;;;;;5037772;28;20032;-80
2021/03/31 01:34:10;;;;;;;21.80;14.30;;;7.10;72.00;;;;;;5033421;28;19929;-80
2021/03/31 01:36:36;;;;;;;;;;;7.20;71.80;;;;;;5035522;28;20037;-79
2021/03/31 01:39:05;;;;;;;23.67;14.25;;;7.20;72.00;;;;;;5036313;28;19916;-80
2021/03/31 01:41:35;;;;;;;24.33;15.10;;;7.10;71.50;;;;;;5039449;28;20124;-81
2021/03/31 01:44:02;;;;;;;22.38;14.82;;;7.10;71.90;;;;;;5037762;28;20053;-80
2021/03/31 01:46:32;;;;;;;23.33;14.20;;;7.10;72.10;;;;;;5037557;28;20095;-80
2021/03/31 01:49:02;;;;;;;21.70;14.15;;;7.10;72.20;;;;;;5042778;28;20380;-81
2021/03/31 01:51:30;;;;;;;26.42;14.70;;;7.10;72.20;;;;;;5053896;28;20053;-81
2021/03/31 01:53:57;;;;;;;23.55;14.20;;;7.00;72.30;;;;;;5045268;28;20458;-81
2021/03/31 01:56:26;;;;;;;24.65;14.45;;;7.00;72.40;;;;;;5049782;28;20106;-81
2021/03/31 01:58:54;;;;;;;21.08;13.15;;;7.00;73.60;;;;;;5049785;28;20111;-81
2021/03/31 02:01:21;;;;;;;21.45;13.75;;;7.00;73.00;;;;;;5054914;28;20037;-81
2021/03/31 02:03:52;;;;;;;23.88;14.40;;;6.90;73.30;;;;;;5030978;28;20093;-81
2021/03/31 02:06:19;;;;;;;23.08;13.80;;;6.90;73.60;;;;;;5053276;28;20040;-80
2021/03/31 02:08:47;;;;;;;18.75;14.00;;;6.90;73.40;;;;;;5059254;28;20218;-81
2021/03/31 02:11:14;;;;;;;24.25;15.02;;;7.00;73.40;;;;;;5047408;28;20041;-81
2021/03/31 02:13:40;;;;;;;20.38;13.90;;;7.00;73.40;;;;;;5042019;28;20029;-81
2021/03/31 02:16:09;;;;;;;24.42;15.07;;;6.90;73.50;;;;;;5034020;28;20033;-80
2021/03/31 02:18:36;;;;;;;20.25;14.05;;;6.80;73.80;;;;;;5044553;28;20037;-81
2021/03/31 02:21:03;;;;;;;21.80;14.35;;;6.80;73.90;;;;;;5051197;28;20063;-80
2021/03/31 02:23:34;;;;;;;26.95;15.40;;;6.80;74.00;;;;;;5044842;28;20052;-81
2021/03/31 02:26:00;;;;;;;22.35;15.35;;;6.70;74.10;;;;;;5050887;28;20055;-80
2021/03/31 02:28:26;;;;;;;26.23;15.35;;;6.70;74.70;;;;;;5032623;28;20483;-80
2021/03/31 02:30:52;;;;;;;27.83;14.32;;;6.70;75.10;;;;;;5018493;28;20030;-80
2021/03/31 02:33:18;;;;;;;26.42;16.10;;;6.70;74.50;;;;;;5012113;28;20033;-81
2021/03/31 02:35:44;;;;;;;21.17;14.15;;;6.70;74.60;;;;;;5057151;28;20039;-81
2021/03/31 02:38:15;;;;;;;29.83;15.15;;;6.70;74.80;;;;;;5029288;28;20029;-80
2021/03/31 02:40:45;;;;;;;25.80;15.48;;;6.70;74.80;;;;;;5049361;28;20060;-80
2021/03/31 02:43:13;;;;;;;24.33;16.00;;;6.60;74.80;;;;;;5056828;28;20114;-80
2021/03/31 02:45:42;;;;;;;23.13;14.40;;;6.70;74.70;;;;;;5058953;28;20540;-80
2021/03/31 02:48:11;;;;;;;23.85;15.63;;;6.60;74.80;;;;;;5036304;28;20032;-80
2021/03/31 02:50:38;;;;;;;27.63;15.38;;;6.60;74.80;;;;;;5055909;28;20028;-81
2021/03/31 02:53:04;;;;;;;25.20;16.08;;;6.60;74.90;;;;;;5029939;28;20060;-80
2021/03/31 02:55:30;;;;;;;21.73;15.05;;;6.60;75.00;;;;;;5043102;28;20029;-80
2021/03/31 02:57:57;;;;;;;28.00;16.17;;;6.50;75.00;;;;;;5023912;28;20034;-80
2021/03/31 03:00:24;;;;;;;24.73;15.95;;;6.50;75.30;;;;;;5045567;28;20112;-80
2021/03/31 03:02:51;;;;;;;28.63;16.48;;;6.50;75.30;;;;;;5032350;28;20083;-80
2021/03/31 03:05:19;;;;;;;30.80;16.60;;;6.50;75.30;;;;;;5045156;28;20308;-81
2021/03/31 03:07:46;;;;;;;25.88;15.43;;;6.50;75.50;;;;;;5049359;28;20041;-80
2021/03/31 03:10:14;;;;;;;29.17;16.55;;;6.50;75.50;;;;;;5044580;28;20033;-81
2021/03/31 03:12:46;;;;;;;25.08;16.38;;;6.40;76.50;;;;;;5047410;28;20029;-80
2021/03/31 03:15:15;;;;;;;29.05;17.08;;;6.30;76.00;;;;;;5045618;28;20043;-80
2021/03/31 03:17:41;;;;;;;25.05;16.15;;;6.20;76.40;;;;;;5050015;28;20037;-80
2021/03/31 03:20:09;;;;;;;29.58;16.77;;;6.20;76.60;;;;;;5043385;28;20037;-80
2021/03/31 03:22:38;;;;;;;24.60;16.60;;;6.20;76.90;;;;;;5047038;28;20518;-79
2021/03/31 03:25:06;;;;;;;25.08;16.67;;;6.10;77.10;;;;;;5032907;28;20072;-81
2021/03/31 03:27:34;;;;;;;24.83;16.15;;;6.10;77.10;;;;;;5033764;28;20036;-80
2021/03/31 03:30:00;;;;;;;23.80;16.10;;;6.10;77.10;;;;;;5052858;28;20131;-80
2021/03/31 03:32:26;;;;;;;27.08;16.50;;;6.10;77.30;;;;;;5029690;28;20059;-80
2021/03/31 03:34:54;;;;;;;24.23;16.95;;;6.10;77.50;;;;;;5049273;28;20038;-80
2021/03/31 03:37:20;;;;;;;26.30;16.55;;;6.00;77.40;;;;;;5044971;28;20037;-80
2021/03/31 03:39:47;;;;;;;27.48;17.10;;;6.00;77.70;;;;;;5045748;28;20033;-80
2021/03/31 03:42:13;;;;;;;31.85;18.73;;;6.00;77.90;;;;;;5036119;28;20175;-80
2021/03/31 03:44:40;;;;;;;29.27;18.15;;;6.00;78.00;;;;;;5032396;28;20107;-80
2021/03/31 03:47:06;;;;;;;26.73;17.23;;;6.10;78.00;;;;;;5052508;28;20040;-80
2021/03/31 03:49:38;;;;;;;29.60;18.67;;;6.10;77.90;;;;;;5049241;28;20059;-80
2021/03/31 03:52:06;;;;;;;27.10;18.02;;;6.00;78.00;;;;;;5005746;28;20124;-80
2021/03/31 03:54:32;;;;;;;25.67;16.95;;;6.00;78.00;;;;;;5049702;28;20045;-80
2021/03/31 03:56:59;;;;;;;29.58;18.70;;;6.00;78.20;;;;;;5036710;28;20128;-79
2021/03/31 03:59:28;;;;;;;27.90;17.88;;;5.90;78.30;;;;;;5044294;28;20107;-80
2021/03/31 04:01:54;;;;;;;30.40;18.20;;;6.00;78.40;;;;;;5039285;28;20036;-80
2021/03/31 04:04:21;;;;;;;27.20;17.63;;;6.00;78.60;;;;;;5038007;28;20034;-81
2021/03/31 04:06:48;;;;;;;26.08;17.65;;;5.80;78.60;;;;;;5043332;28;20057;-80
2021/03/31 04:09:14;;;;;;;29.48;17.90;;;5.80;78.50;;;;;;5049094;28;20406;-81
2021/03/31 04:11:42;;;;;;;28.40;15.85;;;5.80;78.60;;;;;;5051981;28;20052;-80
2021/03/31 04:14:09;;;;;;;26.85;17.48;;;5.90;78.70;;;;;;5044092;28;20382;-80
2021/03/31 04:16:36;;;;;;;25.33;16.38;;;5.80;78.70;;;;;;5039215;28;20553;-80
2021/03/31 04:19:12;;;;;;;31.10;17.42;;;5.90;79.10;;;;;;5031607;28;20038;-80
2021/03/31 04:21:38;;;;;;;30.63;18.13;;;5.90;78.80;;;;;;5046279;28;20028;-81
2021/03/31 04:24:05;;;;;;;31.63;19.45;;;5.80;78.50;;;;;;5043781;28;20098;-81
2021/03/31 04:26:32;;;;;;;29.42;17.77;;;5.80;78.70;;;;;;5033697;28;20038;-80
2021/03/31 04:28:59;;;;;;;33.08;18.85;;;5.80;79.70;;;;;;5049475;28;20033;-80
2021/03/31 04:31:28;;;;;;;28.85;18.33;;;5.80;79.00;;;;;;5037565;28;20044;-80
2021/03/31 04:33:55;;;;;;;31.73;18.30;;;5.80;78.70;;;;;;5041967;28;20098;-80
2021/03/31 04:36:21;;;;;;;28.48;18.48;;;5.80;78.60;;;;;;5013896;28;20034;-80
2021/03/31 04:38:48;;;;;;;26.90;17.65;;;5.80;78.60;;;;;;5031576;28;20406;-80
2021/03/31 04:41:14;;;;;;;25.95;18.17;;;5.80;78.50;;;;;;5027430;28;20037;-80
2021/03/31 04:43:40;;;;;;;26.83;18.35;;;5.70;78.50;;;;;;5030893;28;20037;-81
2021/03/31 04:46:10;;;;;;;28.70;18.25;;;5.70;78.40;;;;;;5041546;28;20029;-81
2021/03/31 04:48:37;;;;;;;28.63;17.98;;;5.70;78.60;;;;;;5052645;28;20044;-81
2021/03/31 04:51:04;;;;;;;28.73;17.33;;;5.60;78.70;;;;;;5049621;28;20080;-81
2021/03/31 04:53:30;;;;;;;30.08;18.52;;;5.60;79.00;;;;;;5041471;28;20112;-81
2021/03/31 04:55:56;;;;;;;31.00;18.88;;;5.60;79.10;;;;;;5041912;28;20447;-81
2021/03/31 04:58:22;;;;;;;29.80;18.30;;;5.50;79.30;;;;;;5026826;28;20039;-81
2021/03/31 05:00:48;;;;;;;28.35;17.50;;;5.40;79.40;;;;;;5043193;28;20066;-80
2021/03/31 05:03:14;;;;;;;34.63;19.15;;;5.40;79.50;;;;;;5044649;28;20083;-80
2021/03/31 05:05:41;;;;;;;29.58;17.85;;;5.40;79.60;;;;;;5030525;28;20034;-80
2021/03/31 05:08:10;;;;;;;34.83;20.17;;;5.40;79.80;;;;;;5031221;28;20488;-80
2021/03/31 05:10:36;;;;;;;28.08;18.27;;;5.30;79.60;;;;;;5034837;28;20502;-80
2021/03/31 05:13:03;;;;;;;30.05;18.95;;;5.30;79.90;;;;;;5019510;28;20029;-80
2021/03/31 05:15:29;;;;;;;28.27;18.88;;;5.30;80.10;;;;;;5042041;28;20041;-81
2021/03/31 05:17:55;;;;;;;30.15;18.70;;;5.30;80.00;;;;;;5047977;28;20046;-80
2021/03/31 05:20:21;;;;;;;30.40;19.15;;;5.30;81.10;;;;;;5031809;28;20052;-80
2021/03/31 05:22:47;;;;;;;35.10;20.13;;;5.30;80.40;;;;;;5053243;28;20041;-81
2021/03/31 05:25:13;;;;;;;38.15;19.73;;;5.30;80.30;;;;;;5024984;28;20530;-80
2021/03/31 05:27:39;;;;;;;27.17;18.40;;;5.30;80.40;;;;;;5030194;28;20037;-81
2021/03/31 05:30:08;;;;;;;30.63;19.05;;;5.40;80.50;;;;;;5033388;28;20065;-81
2021/03/31 05:32:34;;;;;;;32.80;19.42;;;5.40;80.20;;;;;;5044911;28;20033;-81
2021/03/31 05:35:00;;;;;;;28.90;18.38;;;5.40;80.40;;;;;;5038729;28;20105;-80
2021/03/31 05:37:26;;;;;;;34.05;19.73;;;5.40;80.70;;;;;;5044432;28;20133;-80
2021/03/31 05:39:52;;;;;;;38.95;19.58;;;5.40;80.40;;;;;;5050050;28;20043;-80
2021/03/31 05:42:19;;;;;;;40.38;20.45;;;5.40;80.40;;;;;;5044961;28;20462;-80
2021/03/31 05:44:45;;;;;;;36.22;20.73;;;5.40;80.70;;;;;;5009410;28;20102;-81
2021/03/31 05:47:17;;;;;;;31.70;18.23;;;5.40;81.50;;;;;;5027514;28;20044;-80
2021/03/31 05:49:44;;;;;;;;;;;5.40;80.80;;;;;;5041861;28;20032;-81
2021/03/31 05:52:10;;;;;;;31.00;19.30;;;5.50;81.00;;;;;;5048576;28;19955;-80
2021/03/31 05:54:37;;;;;;;31.30;18.52;;;5.50;80.20;;;;;;5020583;28;20038;-81
2021/03/31 05:57:07;;;;;;;33.88;19.58;;;5.50;80.20;;;;;;5048825;28;20036;-80
2021/03/31 05:59:33;;;;;;;30.25;18.90;;;5.60;80.30;;;;;;5050022;28;20486;-80
2021/03/31 06:01:59;;;;;;;32.53;19.70;;;5.60;80.30;;;;;;5053853;28;20048;-81
2021/03/31 06:04:25;;;;;;;36.33;19.67;;;5.60;80.20;;;;;;5046092;28;20487;-80
2021/03/31 06:06:51;;;;;;;30.48;18.05;;;5.60;80.40;;;;;;5025487;28;20033;-81
2021/03/31 06:09:17;;;;;;;36.28;19.42;;;5.70;80.40;;;;;;5023734;28;20041;-81
2021/03/31 06:11:51;;;;;;;33.35;19.23;;;5.70;80.30;;;;;;5013140;28;20415;-80
2021/03/31 06:14:37;;;;;;;33.75;19.20;;;5.70;80.20;;;;;;5049743;28;20029;-81
2021/03/31 06:17:10;;;;;;;31.17;18.73;;;5.80;80.00;;;;;;5049293;28;20064;-81
2021/03/31 06:19:41;;;;;;;39.42;20.08;;;5.90;79.90;;;;;;5050073;28;20071;-81
2021/03/31 06:25:19;;;;;;;32.47;17.67;;;6.00;79.70;;;;;;5050218;28;20041;-81
2021/03/31 06:28:12;;;;;;;27.92;18.63;;;6.00;79.80;;;;;;5062259;28;20499;-80
2021/03/31 06:30:38;;;;;;;30.67;18.33;;;6.10;80.00;;;;;;5044973;28;20388;-81
2021/03/31 06:33:04;;;;;;;32.58;17.90;;;6.10;79.50;;;;;;5019276;28;20391;-81
2021/03/31 06:35:30;;;;;;;34.60;19.73;;;6.20;79.50;;;;;;5030091;28;20038;-81
2021/03/31 06:38:03;;;;;;;28.25;17.60;;;6.20;79.50;;;;;;5041654;28;20036;-80
2021/03/31 06:40:46;;;;;;;31.65;18.65;;;6.30;79.50;;;;;;5049528;28;20080;-81
2021/03/31 06:43:27;;;;;;;38.45;20.40;;;6.40;79.50;;;;;;5047559;28;20052;-81
2021/03/31 06:45:58;;;;;;;27.90;17.75;;;6.40;79.50;;;;;;5044256;28;20091;-81
2021/03/31 06:48:27;;;;;;;32.13;18.92;;;6.50;79.60;;;;;;5051790;28;20314;-81
2021/03/31 06:50:54;;;;;;;31.70;19.08;;;6.60;79.70;;;;;;5046412;28;20044;-81
2021/03/31 06:53:31;;;;;;;35.80;20.20;;;6.70;79.60;;;;;;5056440;28;20144;-82
2021/03/31 06:56:03;;;;;;;34.42;19.67;;;6.80;79.60;;;;;;5057050;28;20084;-82
2021/03/31 06:58:29;;;;;;;34.83;20.27;;;6.90;79.50;;;;;;5066117;28;20075;-82
2021/03/31 07:00:55;;;;;;;32.60;20.73;;;7.00;80.10;;;;;;5073315;28;20048;-82
2021/03/31 07:03:22;;;;;;;34.25;20.10;;;7.10;79.40;;;;;;5045005;28;20037;-82
2021/03/31 07:05:48;;;;;;;32.30;20.80;;;7.20;79.30;;;;;;5024655;28;20037;-83
2021/03/31 07:08:15;;;;;;;33.55;20.13;;;7.40;79.40;;;;;;5046348;28;20033;-82
2021/03/31 07:10:53;;;;;;;33.60;21.33;;;7.50;79.60;;;;;;5056466;28;20044;-83
2021/03/31 07:13:34;;;;;;;34.50;21.33;;;7.60;79.80;;;;;;5060864;28;20033;-83
2021/03/31 07:16:02;;;;;;;37.00;21.88;;;7.80;80.10;;;;;;5058953;28;20037;-82
2021/03/31 07:18:30;;;;;;;37.75;21.50;;;7.90;80.60;;;;;;5055321;28;20105;-82
2021/03/31 07:20:56;;;;;;;37.55;21.73;;;8.00;79.70;;;;;;5039473;28;20056;-81
2021/03/31 07:23:24;;;;;;;36.58;21.05;;;8.20;80.00;;;;;;5055154;28;20375;-81
2021/03/31 07:25:50;;;;;;;39.92;22.92;;;8.40;80.00;;;;;;5055603;28;20033;-81
2021/03/31 07:28:24;;;;;;;38.50;22.40;;;8.50;79.50;;;;;;5050004;28;20021;-81
2021/03/31 07:30:50;;;;;;;40.60;22.70;;;8.70;79.00;;;;;;5034840;28;20037;-81
2021/03/31 07:33:20;;;;;;;37.05;21.75;;;8.80;78.70;;;;;;5052840;28;20092;-81
2021/03/31 07:35:48;;;;;;;42.35;25.73;;;9.00;77.90;;;;;;5052518;28;20044;-81
2021/03/31 07:38:16;;;;;;;43.20;23.05;;;9.20;77.30;;;;;;5046570;28;20043;-81
2021/03/31 07:40:44;;;;;;;39.78;22.40;;;9.40;76.70;;;;;;5058128;28;20041;-81
2021/03/31 07:43:22;;;;;;;36.90;21.10;;;9.60;76.00;;;;;;5041786;28;20067;-81
2021/03/31 07:46:14;;;;;;;35.38;20.63;;;9.80;75.80;;;;;;5039509;28;20033;-82
2021/03/31 07:48:41;;;;;;;36.27;20.53;;;9.90;75.30;;;;;;5042071;28;20156;-80
2021/03/31 07:51:33;;;;;;;35.25;20.48;;;10.20;74.00;;;;;;5041567;28;20044;-81
2021/03/31 07:54:02;;;;;;;34.33;19.90;;;10.50;73.00;;;;;;5049016;28;20411;-81
2021/03/31 07:56:31;;;;;;;39.45;20.95;;;10.70;71.70;;;;;;5035570;28;20088;-80
2021/03/31 07:59:06;;;;;;;35.65;19.15;;;10.90;70.70;;;;;;5040370;28;20145;-81
2021/03/31 08:01:41;;;;;;;34.47;20.98;;;11.10;69.60;;;;;;5047108;28;20068;-80
2021/03/31 08:04:08;;;;;;;31.25;19.73;;;11.30;69.10;;;;;;5047176;28;20101;-81
2021/03/31 08:06:37;;;;;;;35.42;19.23;;;11.50;68.90;;;;;;5045169;28;20549;-81
2021/03/31 08:09:18;;;;;;;33.28;19.40;;;11.70;67.70;;;;;;5056374;28;20369;-81
2021/03/31 08:11:47;;;;;;;31.75;19.83;;;12.00;66.90;;;;;;5043930;28;20039;-80
2021/03/31 08:14:25;;;;;;;33.75;20.73;;;12.20;66.50;;;;;;5047295;28;20055;-81
2021/03/31 08:16:53;;;;;;;30.88;18.77;;;12.30;65.80;;;;;;5031542;28;20463;-81
2021/03/31 08:19:25;;;;;;;34.30;19.45;;;12.50;65.10;;;;;;5043316;28;20033;-80
2021/03/31 08:21:53;;;;;;;34.90;18.67;;;12.70;63.60;;;;;;5047270;28;20028;-80
2021/03/31 08:24:43;;;;;;;36.72;20.15;;;12.90;63.10;;;;;;5038163;28;20032;-80
2021/03/31 08:27:09;;;;;;;37.55;19.73;;;13.10;62.90;;;;;;5036050;28;20414;-80
2021/03/31 08:29:35;;;;;;;32.15;19.48;;;13.30;62.30;;;;;;5015744;28;20033;-81
2021/03/31 08:32:03;;;;;;;37.40;19.77;;;13.40;61.80;;;;;;5048715;28;20487;-80
2021/03/31 08:34:31;;;;;;;36.17;19.52;;;13.50;61.50;;;;;;5047492;28;20040;-81
2021/03/31 08:37:01;;;;;;;33.55;20.60;;;13.60;61.50;;;;;;5016162;28;20057;-81
2021/03/31 08:39:26;;;;;;;35.28;20.73;;;13.80;61.40;;;;;;5024219;28;20029;-81
2021/03/31 08:41:57;;;;;;;33.95;19.30;;;13.90;61.00;;;;;;5016491;28;20065;-82
2021/03/31 08:44:30;;;;;;;31.48;20.90;;;14.00;60.60;;;;;;5026107;28;20109;-81
2021/03/31 08:47:30;;;;;;;34.85;19.65;;;14.20;60.80;;;;;;5035380;28;20045;-79
2021/03/31 08:50:07;;;;;;;37.65;19.70;;;14.30;60.00;;;;;;5045782;28;20396;-82
2021/03/31 08:52:35;;;;;;;36.85;20.25;;;14.50;59.90;;;;;;5045402;28;20064;-82
2021/03/31 08:55:10;;;;;;;32.58;20.95;;;14.60;59.90;;;;;;5038572;28;20041;-80
2021/03/31 08:57:36;;;;;;;37.78;20.15;;;14.70;60.20;;;;;;5035330;28;20060;-82
2021/03/31 09:00:07;;;;;;;36.60;20.27;;;14.80;59.70;;;;;;5044988;28;20029;-81
2021/03/31 09:02:36;;;;;;;36.67;20.50;;;14.90;60.00;;;;;;5022174;28;20037;-82
2021/03/31 09:05:05;;;;;;;35.58;20.67;;;15.00;59.60;;;;;;5054033;28;20041;-82
2021/03/31 09:07:30;;;;;;;30.42;19.98;;;15.20;59.70;;;;;;5051042;28;20052;-82
2021/03/31 09:09:56;;;;;;;36.17;20.90;;;15.30;59.60;;;;;;5028307;28;20471;-82
2021/03/31 09:12:25;;;;;;;33.53;20.10;;;15.50;59.50;;;;;;5034673;28;20045;-82
2021/03/31 09:14:53;;;;;;;33.97;19.08;;;15.60;58.30;;;;;;5044282;28;20455;-82
2021/03/31 09:17:22;;;;;;;33.38;19.73;;;15.70;57.50;;;;;;5046942;28;20033;-82
2021/03/31 09:19:52;;;;;;;35.75;20.30;;;15.90;56.90;;;;;;5050283;28;20076;-82
2021/03/31 09:22:22;;;;;;;32.45;20.35;;;16.00;56.50;;;;;;5044375;28;20041;-82
2021/03/31 09:24:50;;;;;;;37.58;21.38;;;16.10;57.00;;;;;;5046298;28;20105;-82
2021/03/31 09:27:18;;;;;;;36.20;21.05;;;16.20;56.90;;;;;;5047128;28;20041;-81
2021/03/31 09:29:46;;;;;;;32.10;20.15;;;16.40;56.20;;;;;;5050264;28;20021;-82
2021/03/31 09:32:15;;;;;;;33.40;22.75;;;16.50;55.50;;;;;;5030575;28;20504;-82
2021/03/31 09:34:43;;;;;;;38.75;21.63;;;16.60;55.50;;;;;;5045019;28;20048;-81
2021/03/31 09:37:19;;;;;;;34.95;21.20;;;16.60;54.30;;;;;;5055900;28;20039;-82
2021/03/31 09:39:47;;;;;;;35.47;22.13;;;16.70;54.10;;;;;;5049902;28;21302;-81
2021/03/31 09:42:22;;;;;;;37.17;21.63;;;16.80;54.10;;;;;;5047909;28;20123;-82
2021/03/31 09:44:50;;;;;;;36.25;21.88;;;17.00;54.00;;;;;;5063066;28;20108;-82
2021/03/31 09:47:20;;;;;;;34.17;22.20;;;17.10;53.90;;;;;;5027010;28;20081;-82
2021/03/31 09:49:50;;;;;;;39.30;22.83;;;17.30;53.40;;;;;;5033009;28;20052;-81
2021/03/31 09:52:17;;;;;;;41.05;22.20;;;17.40;52.30;;;;;;5037840;28;20068;-81
2021/03/31 09:54:47;;;;;;;39.00;22.42;;;17.60;51.70;;;;;;5046499;28;20108;-82
2021/03/31 09:57:14;;;;;;;40.50;22.85;;;17.60;51.10;;;;;;5040557;28;20584;-82
2021/03/31 09:59:41;;;;;;;36.03;22.63;;;17.70;51.10;;;;;;5050142;28;20043;-81
2021/03/31 10:02:09;;;;;;;35.95;22.85;;;17.80;51.30;;;;;;5050191;28;20033;-81
2021/03/31 10:04:39;;;;;;;34.38;23.35;;;18.00;50.70;;;;;;5047934;28;20033;-82
2021/03/31 10:07:19;;;;;;;35.65;23.33;;;18.10;50.30;;;;;;5036550;28;20033;-82
2021/03/31 10:09:47;;;;;;;37.85;23.63;;;18.20;50.30;;;;;;5046426;28;20067;-81
2021/03/31 10:12:26;;;;;;;34.55;22.20;;;18.30;50.60;;;;;;5038977;28;20145;-82
2021/03/31 10:14:55;;;;;;;36.10;23.27;;;18.40;50.30;;;;;;5047564;28;20043;-82
2021/03/31 10:17:23;;;;;;;33.80;22.15;;;18.60;50.40;;;;;;5053138;28;20087;-82
2021/03/31 10:19:50;;;;;;;38.45;23.35;;;18.70;49.90;;;;;;5042919;28;20180;-81
2021/03/31 10:22:17;;;;;;;42.05;23.50;;;18.90;49.70;;;;;;5033284;28;20037;-81
2021/03/31 10:24:48;;;;;;;42.13;24.35;;;19.00;48.60;;;;;;5038308;28;20039;-82
2021/03/31 10:27:17;;;;;;;41.60;23.38;;;19.20;48.80;;;;;;5045680;28;20040;-82
2021/03/31 10:29:51;;;;;;;42.53;24.13;;;19.30;47.80;;;;;;5038855;28;20060;-82
2021/03/31 10:32:19;;;;;;;41.50;24.52;;;19.40;47.10;;;;;;5046124;28;20029;-83
2021/03/31 10:34:52;;;;;;;39.80;24.15;;;19.50;46.80;;;;;;5043752;28;20419;-81
2021/03/31 10:48:07;;;;;;;37.40;24.20;;;20.10;45.60;;;;;;5041492;28;20044;-82
2021/03/31 10:53:35;;;;;;;42.35;23.27;;;20.30;44.20;;;;;;5040238;28;20040;-82
2021/03/31 10:56:02;;;;;;;46.47;25.70;;;20.30;44.40;;;;;;5047451;28;20503;-82
2021/03/31 10:58:28;;;;;;;44.72;24.92;;;20.40;44.10;;;;;;5029567;28;20041;-83
2021/03/31 11:00:54;;;;;;;40.80;23.73;;;20.50;44.00;;;;;;5028718;28;20428;-82
2021/03/31 11:03:22;;;;;;;38.70;23.33;;;20.60;43.50;;;;;;5009089;28;20052;-83
2021/03/31 11:05:48;;;;;;;41.05;23.67;;;20.80;43.40;;;;;;5025642;28;20033;-85
2021/03/31 11:08:14;;;;;;;40.22;23.63;;;20.90;43.10;;;;;;5043672;28;20025;-84
2021/03/31 11:10:40;;;;;;;37.72;23.23;;;21.10;42.90;;;;;;5040828;28;20033;-83
2021/03/31 11:13:06;;;;;;;36.67;23.05;;;21.10;43.50;;;;;;5037102;28;20029;-82
2021/03/31 11:15:32;;;;;;;38.35;23.13;;;21.20;43.60;;;;;;5041994;28;20044;-83
2021/03/31 11:18:07;;;;;;;43.08;24.05;;;21.40;43.60;;;;;;5040817;28;20392;-83
2021/03/31 11:20:48;;;;;;;43.30;24.40;;;21.50;43.20;;;;;;5029579;28;20108;-82
2021/03/31 11:26:18;;;;;;;40.13;24.27;;;21.70;42.90;;;;;;5021223;28;20064;-84
2021/03/31 11:28:44;;;;;;;40.05;23.95;;;21.90;42.30;;;;;;5009524;28;20087;-83
2021/03/31 11:31:30;;;;;;;37.85;23.45;;;22.00;41.60;;;;;;5028138;28;20078;-82
2021/03/31 11:33:55;;;;;;;45.25;24.80;;;22.10;41.80;;;;;;5039709;28;20531;-81
2021/03/31 11:36:21;;;;;;;38.72;24.73;;;22.20;41.20;;;;;;5036646;28;20037;-81
2021/03/31 11:39:07;;;;;;;40.13;24.92;;;22.30;40.50;;;;;;5044880;28;20089;-84
2021/03/31 11:41:33;;;;;;;38.50;24.08;;;22.30;40.20;;;;;;5041229;28;20028;-83
2021/03/31 11:43:59;;;;;;;38.17;22.95;;;22.40;39.80;;;;;;5030075;28;20033;-83
2021/03/31 11:46:24;;;;;;;42.50;24.67;;;22.50;39.60;;;;;;5039851;28;20473;-83
2021/03/31 11:48:50;;;;;;;43.72;24.65;;;22.60;38.80;;;;;;5019695;28;20033;-83
2021/03/31 11:51:36;;;;;;;39.90;24.85;;;22.80;38.30;;;;;;5016125;28;20519;-84
2021/03/31 11:54:02;;;;;;;40.75;23.70;;;22.90;38.90;;;;;;5023477;28;20041;-83
2021/03/31 11:56:28;;;;;;;42.55;23.95;;;23.10;38.30;;;;;;5034960;28;20404;-83
2021/03/31 11:58:54;;;;;;;40.33;23.48;;;23.20;37.60;;;;;;5040087;28;20113;-83
2021/03/31 12:01:39;;;;;;;40.15;23.67;;;23.30;36.80;;;;;;5016988;28;20072;-81
2021/03/31 12:04:05;;;;;;;42.45;24.23;;;23.50;37.50;;;;;;5039333;28;20388;-80
2021/03/31 12:06:51;;;;;;;39.00;22.15;;;23.70;37.50;;;;;;5010163;28;20088;-81
2021/03/31 12:09:41;;;;;;;35.22;23.38;;;23.90;36.70;;;;;;5029435;28;20389;-81
2021/03/31 12:12:26;;;;;;;40.25;23.50;;;24.10;36.70;;;;;;5027880;28;22195;-81
2021/03/31 12:14:52;;;;;;;38.92;21.42;;;24.30;36.60;;;;;;5011965;28;20199;-81
2021/03/31 12:17:18;;;;;;;33.58;19.40;;;24.50;35.50;;;;;;5036784;28;20364;-80
2021/03/31 12:20:10;;;;;;;27.42;17.70;;;24.70;33.30;;;;;;5013242;28;20052;-82
2021/03/31 12:22:55;;;;;;;28.17;18.10;;;24.80;32.10;;;;;;5033321;28;20041;-81
2021/03/31 12:25:22;;;;;;;36.58;20.65;;;24.90;32.00;;;;;;5007571;28;20033;-81
2021/03/31 12:28:10;;;;;;;31.58;19.58;;;25.00;31.60;;;;;;5001545;28;20313;-83
2021/03/31 12:30:36;;;;;;;38.55;21.80;;;25.10;32.90;;;;;;5012943;28;20091;-82
2021/03/31 12:33:01;;;;;;;37.97;22.05;;;25.10;32.90;;;;;;5039692;28;20060;-82
2021/03/31 12:35:27;;;;;;;37.10;21.38;;;25.10;32.90;;;;;;5019681;28;20075;-82
2021/03/31 12:38:13;;;;;;;36.67;21.48;;;25.10;33.30;;;;;;4996137;28;20113;-82
2021/03/31 12:40:40;;;;;;;43.45;22.35;;;25.30;33.40;;;;;;5024983;28;20148;-82
2021/03/31 12:43:08;;;;;;;34.85;21.05;;;25.60;33.10;;;;;;5036352;28;20029;-81
2021/03/31 12:45:34;;;;;;;35.60;20.67;;;25.80;33.10;;;;;;5033510;28;20059;-80
2021/03/31 12:48:00;;;;;;;30.90;20.17;;;25.80;31.80;;;;;;5037918;28;20034;-80
2021/03/31 12:50:26;;;;;;;30.92;20.50;;;25.60;30.90;;;;;;5027209;28;20505;-83
2021/03/31 12:55:41;;;;;;;34.80;20.58;;;25.30;30.10;;;;;;5039000;28;20032;-83
2021/03/31 12:58:12;;;;;;;35.60;21.48;;;25.10;29.80;;;;;;5028291;28;20119;-84
2021/03/31 13:00:38;;;;;;;32.90;20.92;;;25.10;30.00;;;;;;5026508;28;20117;-82
2021/03/31 13:03:04;;;;;;;28.40;19.52;;;25.00;30.00;;;;;;5033898;28;20119;-84
2021/03/31 13:05:31;;;;;;;30.75;20.23;;;25.00;30.40;;;;;;4996142;28;20048;-84
2021/03/31 13:08:16;;;;;;;38.13;20.73;;;25.00;30.70;;;;;;5019084;28;20099;-84